sensor_id;sensor_type;location;lat;lon;timestamp;P1;durP1;ratioP1;P2;durP2;ratioP2
53753;SDS011;39667;52.274;20.964;2023-02-03T00:01:04;6.40;;;3.50;;
53753;SDS011;39667;52.274;20.964;2023-02-03T00:03:52;5.50;;;3.50;;
53753;SDS011;39667;52.274;20.964;2023-02-03T00:06:26;4.90;;;3.20;;
53753;SDS011;39667;52.274;20.964;2023-02-03T00:09:04;4.80;;;3.50;;
53753;SDS011;39667;52.274;20.964;2023-02-03T00:11:35;5.20;;;3.50;;
53753;SDS011;39667;52.274;20.964;2023-02-03T00:14:10;3.90;;;3.20;;
53753;SDS011;39667;52.274;20.964;2023-02-03T00:16:45;5.60;;;4.80;;
53753;SDS011;39667;52.274;20.964;2023-02-03T00:19:13;7.10;;;4.70;;
53753;SDS011;39667;52.274;20.964;2023-02-03T00:21:43;9.70;;;5.40;;
53753;SDS011;39667;52.274;20.964;2023-02-03T00:25:25;9.20;;;5.50;;
53753;SDS011;39667;52.274;20.964;2023-02-03T00:28:13;9.40;;;4.70;;
53753;SDS011;39667;52.274;20.964;2023-02-03T00:30:42;5.60;;;3.60;;
53753;SDS011;39667;52.274;20.964;2023-02-03T00:33:56;8.80;;;4.30;;
53753;SDS011;39667;52.274;20.964;2023-02-03T00:36:30;5.20;;;3.30;;
53753;SDS011;39667;52.274;20.964;2023-02-03T00:38:59;5.20;;;3.20;;
53753;SDS011;39667;52.274;20.964;2023-02-03T00:41:32;3.80;;;2.70;;
53753;SDS011;39667;52.274;20.964;2023-02-03T00:44:01;6.20;;;3.10;;
53753;SDS011;39667;52.274;20.964;2023-02-03T00:46:29;4.30;;;3.00;;
53753;SDS011;39667;52.274;20.964;2023-02-03T00:58:43;2.90;;;2.40;;
53753;SDS011;39667;52.274;20.964;2023-02-03T01:01:33;4.50;;;2.50;;
53753;SDS011;39667;52.274;20.964;2023-02-03T01:04:43;5.10;;;2.90;;
53753;SDS011;39667;52.274;20.964;2023-02-03T01:07:19;3.60;;;2.60;;
53753;SDS011;39667;52.274;20.964;2023-02-03T01:10:51;4.30;;;2.40;;
53753;SDS011;39667;52.274;20.964;2023-02-03T01:14:04;4.70;;;3.10;;
53753;SDS011;39667;52.274;20.964;2023-02-03T01:17:35;4.80;;;2.50;;
53753;SDS011;39667;52.274;20.964;2023-02-03T01:20:28;3.30;;;2.40;;
53753;SDS011;39667;52.274;20.964;2023-02-03T01:23:38;3.50;;;2.50;;
53753;SDS011;39667;52.274;20.964;2023-02-03T01:27:42;5.20;;;3.00;;
53753;SDS011;39667;52.274;20.964;2023-02-03T01:36:27;4.70;;;3.10;;
53753;SDS011;39667;52.274;20.964;2023-02-03T01:39:38;4.40;;;2.70;;
53753;SDS011;39667;52.274;20.964;2023-02-03T01:50:42;3.40;;;2.60;;
53753;SDS011;39667;52.274;20.964;2023-02-03T01:57:45;4.10;;;2.40;;
53753;SDS011;39667;52.274;20.964;2023-02-03T02:01:30;4.20;;;2.30;;
53753;SDS011;39667;52.274;20.964;2023-02-03T02:05:23;3.80;;;2.40;;
53753;SDS011;39667;52.274;20.964;2023-02-03T02:09:08;4.80;;;3.30;;
53753;SDS011;39667;52.274;20.964;2023-02-03T03:01:05;3.20;;;2.40;;
53753;SDS011;39667;52.274;20.964;2023-02-03T03:05:23;3.80;;;2.30;;
53753;SDS011;39667;52.274;20.964;2023-02-03T03:08:41;4.00;;;2.40;;
53753;SDS011;39667;52.274;20.964;2023-02-03T03:35:18;3.00;;;2.50;;
53753;SDS011;39667;52.274;20.964;2023-02-03T03:37:54;4.40;;;2.30;;
53753;SDS011;39667;52.274;20.964;2023-02-03T03:40:33;3.70;;;2.70;;
53753;SDS011;39667;52.274;20.964;2023-02-03T03:46:52;4.70;;;3.20;;
53753;SDS011;39667;52.274;20.964;2023-02-03T03:50:31;3.00;;;2.50;;
53753;SDS011;39667;52.274;20.964;2023-02-03T03:54:25;7.10;;;3.30;;
53753;SDS011;39667;52.274;20.964;2023-02-03T03:57:22;3.70;;;3.10;;
53753;SDS011;39667;52.274;20.964;2023-02-03T04:01:38;6.20;;;3.70;;
53753;SDS011;39667;52.274;20.964;2023-02-03T04:04:52;4.80;;;3.40;;
53753;SDS011;39667;52.274;20.964;2023-02-03T04:08:22;5.30;;;3.50;;
53753;SDS011;39667;52.274;20.964;2023-02-03T04:11:00;6.00;;;4.00;;
53753;SDS011;39667;52.274;20.964;2023-02-03T04:14:10;7.00;;;3.60;;
53753;SDS011;39667;52.274;20.964;2023-02-03T04:16:40;4.70;;;4.00;;
53753;SDS011;39667;52.274;20.964;2023-02-03T04:19:08;3.40;;;3.00;;
53753;SDS011;39667;52.274;20.964;2023-02-03T04:23:16;5.80;;;3.20;;
53753;SDS011;39667;52.274;20.964;2023-02-03T04:33:10;5.70;;;4.00;;
53753;SDS011;39667;52.274;20.964;2023-02-03T04:35:59;4.90;;;3.60;;
53753;SDS011;39667;52.274;20.964;2023-02-03T04:38:26;5.90;;;3.40;;
53753;SDS011;39667;52.274;20.964;2023-02-03T04:41:38;4.00;;;3.30;;
53753;SDS011;39667;52.274;20.964;2023-02-03T04:44:27;4.30;;;3.90;;
53753;SDS011;39667;52.274;20.964;2023-02-03T04:46:56;6.00;;;4.20;;
53753;SDS011;39667;52.274;20.964;2023-02-03T04:49:25;6.80;;;3.40;;
53753;SDS011;39667;52.274;20.964;2023-02-03T04:51:55;7.10;;;4.60;;
53753;SDS011;39667;52.274;20.964;2023-02-03T04:56:10;6.30;;;4.30;;
53753;SDS011;39667;52.274;20.964;2023-02-03T04:58:59;6.40;;;4.30;;
53753;SDS011;39667;52.274;20.964;2023-02-03T05:01:28;6.40;;;5.00;;
53753;SDS011;39667;52.274;20.964;2023-02-03T05:04:06;6.80;;;5.20;;
53753;SDS011;39667;52.274;20.964;2023-02-03T05:07:59;8.20;;;5.50;;
53753;SDS011;39667;52.274;20.964;2023-02-03T05:12:26;6.40;;;4.40;;
53753;SDS011;39667;52.274;20.964;2023-02-03T05:22:44;7.80;;;5.90;;
53753;SDS011;39667;52.274;20.964;2023-02-03T05:30:43;8.20;;;5.10;;
53753;SDS011;39667;52.274;20.964;2023-02-03T05:33:59;6.70;;;4.80;;
53753;SDS011;39667;52.274;20.964;2023-02-03T05:42:20;6.70;;;5.10;;
53753;SDS011;39667;52.274;20.964;2023-02-03T05:46:25;6.60;;;5.20;;
53753;SDS011;39667;52.274;20.964;2023-02-03T05:54:34;6.80;;;5.10;;
53753;SDS011;39667;52.274;20.964;2023-02-03T05:58:09;7.80;;;5.20;;
53753;SDS011;39667;52.274;20.964;2023-02-03T06:01:13;8.60;;;5.20;;
53753;SDS011;39667;52.274;20.964;2023-02-03T06:17:20;8.20;;;5.10;;
53753;SDS011;39667;52.274;20.964;2023-02-03T06:21:41;9.00;;;4.70;;
53753;SDS011;39667;52.274;20.964;2023-02-03T06:25:34;9.80;;;6.10;;
53753;SDS011;39667;52.274;20.964;2023-02-03T06:30:06;7.50;;;5.10;;
53753;SDS011;39667;52.274;20.964;2023-02-03T06:33:04;7.10;;;5.00;;
53753;SDS011;39667;52.274;20.964;2023-02-03T06:36:41;7.60;;;4.80;;
53753;SDS011;39667;52.274;20.964;2023-02-03T06:39:18;8.50;;;5.30;;
53753;SDS011;39667;52.274;20.964;2023-02-03T06:41:46;6.80;;;4.90;;
53753;SDS011;39667;52.274;20.964;2023-02-03T06:44:13;8.70;;;5.60;;
53753;SDS011;39667;52.274;20.964;2023-02-03T06:46:40;9.60;;;6.10;;
53753;SDS011;39667;52.274;20.964;2023-02-03T07:00:17;9.80;;;5.70;;
53753;SDS011;39667;52.274;20.964;2023-02-03T07:02:53;8.80;;;5.80;;
53753;SDS011;39667;52.274;20.964;2023-02-03T07:05:21;13.00;;;6.10;;
53753;SDS011;39667;52.274;20.964;2023-02-03T07:07:49;8.90;;;5.90;;
53753;SDS011;39667;52.274;20.964;2023-02-03T07:10:16;8.60;;;5.00;;
53753;SDS011;39667;52.274;20.964;2023-02-03T07:12:45;10.00;;;5.30;;
53753;SDS011;39667;52.274;20.964;2023-02-03T07:15:12;9.10;;;5.80;;
53753;SDS011;39667;52.274;20.964;2023-02-03T07:17:38;9.00;;;5.90;;
53753;SDS011;39667;52.274;20.964;2023-02-03T07:20:13;11.00;;;6.30;;
53753;SDS011;39667;52.274;20.964;2023-02-03T07:22:40;7.60;;;5.40;;
53753;SDS011;39667;52.274;20.964;2023-02-03T07:25:09;6.70;;;5.40;;
53753;SDS011;39667;52.274;20.964;2023-02-03T07:27:36;9.20;;;6.50;;
53753;SDS011;39667;52.274;20.964;2023-02-03T07:30:04;8.60;;;5.80;;
53753;SDS011;39667;52.274;20.964;2023-02-03T07:32:57;12.50;;;7.10;;
53753;SDS011;39667;52.274;20.964;2023-02-03T07:35:51;12.10;;;6.70;;
53753;SDS011;39667;52.274;20.964;2023-02-03T07:38:24;10.60;;;6.70;;
53753;SDS011;39667;52.274;20.964;2023-02-03T07:40:52;10.90;;;7.10;;
53753;SDS011;39667;52.274;20.964;2023-02-03T07:44:01;8.00;;;6.50;;
53753;SDS011;39667;52.274;20.964;2023-02-03T07:46:45;8.10;;;6.00;;
53753;SDS011;39667;52.274;20.964;2023-02-03T07:49:16;10.80;;;6.60;;
53753;SDS011;39667;52.274;20.964;2023-02-03T07:51:43;8.30;;;6.20;;
53753;SDS011;39667;52.274;20.964;2023-02-03T07:54:11;9.50;;;6.10;;
53753;SDS011;39667;52.274;20.964;2023-02-03T07:57:03;9.90;;;5.90;;
53753;SDS011;39667;52.274;20.964;2023-02-03T07:59:31;9.10;;;6.10;;
53753;SDS011;39667;52.274;20.964;2023-02-03T08:01:58;8.70;;;5.30;;
53753;SDS011;39667;52.274;20.964;2023-02-03T08:05:41;9.50;;;6.00;;
53753;SDS011;39667;52.274;20.964;2023-02-03T08:08:37;8.60;;;4.80;;
53753;SDS011;39667;52.274;20.964;2023-02-03T08:11:26;9.90;;;5.10;;
53753;SDS011;39667;52.274;20.964;2023-02-03T08:13:57;8.90;;;5.00;;
53753;SDS011;39667;52.274;20.964;2023-02-03T08:16:24;7.50;;;4.60;;
53753;SDS011;39667;52.274;20.964;2023-02-03T08:19:17;8.00;;;4.90;;
53753;SDS011;39667;52.274;20.964;2023-02-03T08:35:06;9.10;;;4.60;;
53753;SDS011;39667;52.274;20.964;2023-02-03T08:37:37;6.60;;;4.40;;
53753;SDS011;39667;52.274;20.964;2023-02-03T08:40:05;6.50;;;4.40;;
53753;SDS011;39667;52.274;20.964;2023-02-03T08:42:50;7.60;;;4.90;;
53753;SDS011;39667;52.274;20.964;2023-02-03T08:45:19;6.90;;;4.20;;
53753;SDS011;39667;52.274;20.964;2023-02-03T08:47:53;7.00;;;4.70;;
53753;SDS011;39667;52.274;20.964;2023-02-03T08:50:42;5.80;;;4.10;;
53753;SDS011;39667;52.274;20.964;2023-02-03T08:53:12;9.60;;;4.40;;
53753;SDS011;39667;52.274;20.964;2023-02-03T08:55:43;8.40;;;4.70;;
53753;SDS011;39667;52.274;20.964;2023-02-03T08:58:37;5.30;;;3.70;;
53753;SDS011;39667;52.274;20.964;2023-02-03T09:01:25;6.20;;;5.20;;
53753;SDS011;39667;52.274;20.964;2023-02-03T09:04:34;6.90;;;3.90;;
53753;SDS011;39667;52.274;20.964;2023-02-03T09:07:22;4.90;;;3.90;;
53753;SDS011;39667;52.274;20.964;2023-02-03T09:09:50;8.20;;;4.70;;
53753;SDS011;39667;52.274;20.964;2023-02-03T09:12:22;5.70;;;3.90;;
53753;SDS011;39667;52.274;20.964;2023-02-03T09:14:50;8.30;;;4.30;;
53753;SDS011;39667;52.274;20.964;2023-02-03T09:17:21;5.00;;;3.30;;
53753;SDS011;39667;52.274;20.964;2023-02-03T09:19:49;4.70;;;3.40;;
53753;SDS011;39667;52.274;20.964;2023-02-03T09:22:17;5.00;;;3.30;;
53753;SDS011;39667;52.274;20.964;2023-02-03T09:24:55;6.10;;;3.60;;
53753;SDS011;39667;52.274;20.964;2023-02-03T09:27:26;8.50;;;4.50;;
53753;SDS011;39667;52.274;20.964;2023-02-03T09:30:03;4.60;;;3.70;;
53753;SDS011;39667;52.274;20.964;2023-02-03T09:32:38;6.70;;;3.60;;
53753;SDS011;39667;52.274;20.964;2023-02-03T09:35:19;3.80;;;3.20;;
53753;SDS011;39667;52.274;20.964;2023-02-03T09:37:47;6.80;;;3.60;;
53753;SDS011;39667;52.274;20.964;2023-02-03T09:40:19;6.30;;;3.20;;
53753;SDS011;39667;52.274;20.964;2023-02-03T09:43:16;5.20;;;3.40;;
53753;SDS011;39667;52.274;20.964;2023-02-03T09:45:49;6.40;;;3.60;;
53753;SDS011;39667;52.274;20.964;2023-02-03T09:48:21;5.30;;;3.40;;
53753;SDS011;39667;52.274;20.964;2023-02-03T09:50:54;4.20;;;3.30;;
53753;SDS011;39667;52.274;20.964;2023-02-03T09:53:35;7.70;;;4.10;;
